createdAt,value
2022-12-17T00:00:44.535Z,100819.31
2022-12-17T00:02:07.280Z,100817.44
2022-12-17T00:03:30.134Z,100824.72
2022-12-17T00:04:51.214Z,100821.00
2022-12-17T00:06:12.992Z,100815.63
2022-12-17T00:07:36.644Z,100822.69
2022-12-17T00:08:57.850Z,100819.16
2022-12-17T00:10:18.643Z,100821.84
2022-12-17T00:11:41.944Z,100822.69
2022-12-17T00:13:05.421Z,100817.28
2022-12-17T00:14:26.227Z,100822.69
2022-12-17T00:15:47.111Z,100827.09
2022-12-17T00:17:07.808Z,100828.94
2022-12-17T00:18:48.879Z,100821.69
2022-12-17T00:20:09.710Z,100831.66
2022-12-17T00:21:31.117Z,100833.34
2022-12-17T00:22:51.857Z,100826.25
2022-12-17T00:24:16.470Z,100826.25
2022-12-17T00:25:44.613Z,100821.69
2022-12-17T00:27:05.241Z,100823.56
2022-12-17T00:28:30.165Z,100827.09
2022-12-17T00:29:50.801Z,100830.50
2022-12-17T00:31:12.681Z,100833.34
2022-12-17T00:32:33.627Z,100828.94
2022-12-17T00:33:54.849Z,100836.72
2022-12-17T00:35:19.553Z,100834.91
2022-12-17T00:36:40.708Z,100845.69
2022-12-17T00:38:07.181Z,100838.59
2022-12-17T00:39:30.873Z,100839.44
2022-12-17T00:40:51.909Z,100840.97
2022-12-17T00:42:15.689Z,100838.13
2022-12-17T00:43:40.238Z,100844.53
2022-12-17T00:45:10.054Z,100848.91
2022-12-17T00:46:31.034Z,100851.78
2022-12-17T00:47:53.093Z,100855.34
2022-12-17T00:49:14.746Z,100858.88
2022-12-17T00:50:35.921Z,100862.41
2022-12-17T00:51:57.110Z,100855.47
2022-12-17T00:53:17.817Z,100864.28
2022-12-17T00:54:38.760Z,100868.84
2022-12-17T00:55:59.336Z,100863.56
2022-12-17T00:57:28.442Z,100867.13
2022-12-17T00:58:49.170Z,100864.44
2022-12-17T01:00:10.922Z,100872.69
2022-12-17T01:01:33.367Z,100877.03
2022-12-17T01:02:55.064Z,100870.81
2022-12-17T01:04:17.313Z,100876.94
2022-12-17T01:05:41.242Z,100869.97
2022-12-17T01:07:02.636Z,100877.03
2022-12-17T01:08:28.564Z,100884.00
2022-12-17T01:09:49.144Z,100877.03
2022-12-17T01:11:09.731Z,100883.31
2022-12-17T01:12:34.152Z,100888.56
2022-12-17T01:13:55.036Z,100885.84
2022-12-17T01:15:17.396Z,100884.00
2022-12-17T01:16:38.325Z,100884.16
2022-12-17T01:17:58.989Z,100878.59
2022-12-17T01:19:19.882Z,100885.84
2022-12-17T01:20:40.721Z,100885.84
2022-12-17T01:22:04.247Z,100886.69
2022-12-17T01:23:29.114Z,100893.13
2022-12-17T01:24:50.971Z,100893.13
2022-12-17T01:26:14.638Z,100883.31
2022-12-17T01:27:36.131Z,100886.69
2022-12-17T01:28:59.134Z,100894.78
2022-12-17T01:30:23.542Z,100888.56
2022-12-17T01:31:44.819Z,100892.97
2022-12-17T01:33:05.813Z,100897.38
2022-12-17T01:34:26.813Z,100894.66
2022-12-17T01:35:47.493Z,100898.34
2022-12-17T01:37:08.346Z,100900.91
2022-12-17T01:38:31.689Z,100897.38
2022-12-17T01:39:52.523Z,100898.03
2022-12-17T01:41:15.564Z,100900.75
2022-12-17T01:42:36.567Z,100899.91
2022-12-17T01:43:57.917Z,100893.63
2022-12-17T01:45:19.049Z,100901.75
2022-12-17T01:46:48.839Z,100895.50
2022-12-17T01:48:14.806Z,100905.47
2022-12-17T01:49:40.322Z,100900.06
2022-12-17T01:51:05.536Z,100906.28
2022-12-17T01:52:44.318Z,100907.13
2022-12-17T01:54:11.962Z,100905.31
2022-12-17T01:55:36.142Z,100904.44
2022-12-17T01:57:01.203Z,100910.69
2022-12-17T01:58:22.855Z,100907.13
2022-12-17T02:00:14.707Z,100907.13
2022-12-17T02:01:36.785Z,100917.81
2022-12-17T02:03:01.368Z,100919.47
2022-12-17T02:04:27.153Z,100913.25
2022-12-17T02:06:12.747Z,100912.41
2022-12-17T02:08:10.091Z,100911.38
2022-12-17T02:09:58.009Z,100916.78
2022-12-17T02:11:24.914Z,100914.09
2022-12-17T02:13:20.588Z,100912.41
2022-12-17T02:15:00.209Z,100917.66
2022-12-17T02:16:40.485Z,100929.28
2022-12-17T02:18:08.402Z,100916.94
2022-12-17T02:20:07.721Z,100920.50
2022-12-17T02:21:32.421Z,100921.34
2022-12-17T02:23:33.269Z,100929.44
2022-12-17T02:25:22.096Z,100915.22
2022-12-17T02:27:05.470Z,100924.19
2022-12-17T02:28:26.827Z,100935.97
2022-12-17T02:29:56.566Z,100925.19
2022-12-17T02:31:17.578Z,100922.50
2022-12-17T02:32:39.359Z,100929.75
2022-12-17T02:34:01.136Z,100926.19
2022-12-17T02:35:33.250Z,100927.03
2022-12-17T02:37:01.995Z,100920.78
2022-12-17T02:38:41.115Z,100926.19
2022-12-17T02:40:02.192Z,100927.88
2022-12-17T02:41:26.768Z,100927.72
2022-12-17T02:42:53.061Z,100925.03
2022-12-17T02:44:19.103Z,100931.28
2022-12-17T02:45:40.658Z,100936.53
2022-12-17T02:47:02.257Z,100939.09
2022-12-17T02:48:26.000Z,100930.97
2022-12-17T02:49:49.100Z,100935.38
2022-12-17T02:51:10.309Z,100931.66
2022-12-17T02:52:35.056Z,100937.94
2022-12-17T02:54:08.201Z,100944.00
2022-12-17T02:55:32.424Z,100939.63
2022-12-17T02:56:53.536Z,100935.78
2022-12-17T02:58:16.077Z,100935.78
2022-12-17T02:59:37.058Z,100941.19
2022-12-17T03:01:05.293Z,100938.34
2022-12-17T03:02:26.561Z,100935.63
2022-12-17T03:03:50.278Z,100938.34
2022-12-17T03:05:42.726Z,100934.63
2022-12-17T03:06:53.018Z,100942.75
2022-12-17T03:08:15.132Z,100939.00
2022-12-17T03:09:36.118Z,100945.44
2022-12-17T03:10:57.098Z,100940.03
2022-12-17T03:12:17.997Z,100942.59
2022-12-17T03:13:47.206Z,100944.28
2022-12-17T03:15:07.997Z,100954.22
2022-12-17T03:16:37.747Z,100954.06
2022-12-17T03:17:59.153Z,100950.22
2022-12-17T03:19:21.086Z,100953.94
2022-12-17T03:20:41.629Z,100948.53
2022-12-17T03:22:02.896Z,100963.72
2022-12-17T03:23:45.106Z,100958.19
2022-12-17T03:25:08.764Z,100960.88
2022-12-17T03:26:31.089Z,100959.88
2022-12-17T03:27:51.764Z,100963.59
2022-12-17T03:29:12.438Z,100958.03
2022-12-17T03:30:36.201Z,100955.34
2022-12-17T03:31:58.250Z,100959.03
2022-12-17T03:33:19.191Z,100948.22
2022-12-17T03:34:42.902Z,100954.34
2022-12-17T03:36:03.778Z,100961.72
2022-12-17T03:37:25.210Z,100960.72
2022-12-17T03:38:45.813Z,100954.47
2022-12-17T03:40:06.304Z,100968.66
2022-12-17T03:41:37.409Z,100959.75
2022-12-17T03:42:58.129Z,100960.56
2022-12-17T03:44:21.584Z,100964.97
2022-12-17T03:45:45.471Z,100967.69
2022-12-17T03:47:15.591Z,100957.03
2022-12-17T03:48:36.182Z,100956.88
2022-12-17T03:49:56.740Z,100957.72
2022-12-17T03:51:20.489Z,100963.13
2022-12-17T03:52:41.120Z,100963.13
2022-12-17T03:54:02.056Z,100973.75
2022-12-17T03:55:23.150Z,100967.53
2022-12-17T03:56:49.068Z,100973.75
2022-12-17T03:58:10.085Z,100965.66
2022-12-17T03:59:31.447Z,100977.34
2022-12-17T04:00:52.048Z,100965.66
2022-12-17T04:02:16.057Z,100975.47
2022-12-17T04:03:40.666Z,100977.34
2022-12-17T04:05:01.845Z,100978.31
2022-12-17T04:06:23.178Z,100980.88
2022-12-17T04:07:44.396Z,100976.34
2022-12-17T04:09:05.384Z,100973.63
2022-12-17T04:10:26.622Z,100979.03
2022-12-17T04:11:50.665Z,100980.72
2022-12-17T04:13:16.897Z,100986.09
2022-12-17T04:14:37.844Z,100985.13
2022-12-17T04:15:58.743Z,100985.13
2022-12-17T04:17:19.381Z,100985.94
2022-12-17T04:18:40.475Z,100988.53
2022-12-17T04:20:01.457Z,100998.47
2022-12-17T04:21:23.121Z,101002.03
2022-12-17T04:22:43.843Z,101012.84
2022-12-17T04:24:04.452Z,101009.97
2022-12-17T04:25:25.470Z,101014.50
2022-12-17T04:26:48.056Z,101018.06
2022-12-17T04:28:08.697Z,101008.97
2022-12-17T04:29:30.097Z,101010.81
2022-12-17T04:30:50.737Z,101019.78
2022-12-17T04:32:11.678Z,101010.66
2022-12-17T04:33:32.532Z,101018.75
2022-12-17T04:34:53.585Z,101016.94
2022-12-17T04:36:14.364Z,101010.66
2022-12-17T04:37:34.915Z,101011.53
2022-12-17T04:38:55.732Z,101018.63
2022-12-17T04:40:16.373Z,101018.63
2022-12-17T04:41:40.413Z,101025.72
2022-12-17T04:43:00.945Z,101023.88
2022-12-17T04:44:22.004Z,101014.91
2022-12-17T04:45:45.056Z,101027.41
2022-12-17T04:47:08.708Z,101022.88
2022-12-17T04:48:29.399Z,101029.13
2022-12-17T04:49:52.967Z,101032.66
2022-12-17T04:51:15.082Z,101029.97
2022-12-17T04:52:38.007Z,101029.97
2022-12-17T04:54:04.314Z,101028.28
2022-12-17T04:55:31.140Z,101034.53
2022-12-17T04:56:51.811Z,101037.22
2022-12-17T04:58:12.442Z,101029.97
2022-12-17T04:59:33.043Z,101030.81
2022-12-17T05:00:53.726Z,101029.97
2022-12-17T05:02:14.899Z,101029.13
2022-12-17T05:03:39.289Z,101032.66
2022-12-17T05:05:00.492Z,101031.81
2022-12-17T05:06:22.301Z,101040.63
2022-12-17T05:07:42.991Z,101037.94
2022-12-17T05:09:03.869Z,101036.22
2022-12-17T05:10:25.468Z,101047.72
2022-12-17T05:11:46.293Z,101045.00
2022-12-17T05:13:06.947Z,101042.31
2022-12-17T05:14:28.166Z,101051.28
2022-12-17T05:16:08.727Z,101047.72
2022-12-17T05:17:32.389Z,101050.41
2022-12-17T05:18:53.255Z,101046.72
2022-12-17T05:20:13.977Z,101045.88
2022-12-17T05:21:34.755Z,101048.59
2022-12-17T05:22:55.639Z,101054.81
2022-12-17T05:24:16.277Z,101058.50
2022-12-17T05:25:37.249Z,101061.94
2022-12-17T05:27:00.345Z,101069.19
2022-12-17T05:28:20.913Z,101063.78
2022-12-17T05:29:41.997Z,101078.13
2022-12-17T05:31:11.106Z,101074.44
2022-12-17T05:32:31.798Z,101082.53
2022-12-17T05:33:52.523Z,101082.53
2022-12-17T05:35:13.183Z,101081.69
2022-12-17T05:36:36.895Z,101082.53
2022-12-17T05:38:03.486Z,101083.38
2022-12-17T05:39:24.193Z,101084.25
2022-12-17T05:40:50.976Z,101080.53
2022-12-17T05:42:11.735Z,101091.34
2022-12-17T05:43:35.745Z,101085.09
2022-12-17T05:44:56.741Z,101085.81
2022-12-17T05:46:21.431Z,101086.81
2022-12-17T05:47:42.742Z,101093.19
2022-12-17T05:49:03.524Z,101097.44
2022-12-17T05:50:24.747Z,101100.16
2022-12-17T05:51:45.876Z,101096.44
2022-12-17T05:53:06.414Z,101097.28
2022-12-17T05:54:27.516Z,101098.13
2022-12-17T05:55:48.329Z,101106.09
2022-12-17T05:57:09.056Z,101105.97
2022-12-17T05:58:34.052Z,101099.69
2022-12-17T06:00:03.343Z,101104.97
2022-12-17T06:01:33.133Z,101103.94
2022-12-17T06:02:53.886Z,101111.03
2022-12-17T06:04:14.713Z,101105.50
2022-12-17T06:05:35.813Z,101104.50
2022-12-17T06:06:56.563Z,101108.06
2022-12-17T06:08:25.516Z,101111.47
2022-12-17T06:09:46.147Z,101111.47
2022-12-17T06:11:06.922Z,101110.63
2022-12-17T06:12:27.865Z,101098.81
2022-12-17T06:13:48.879Z,101107.75
2022-12-17T06:15:11.078Z,101108.75
2022-12-17T06:16:31.706Z,101100.66
2022-12-17T06:17:52.285Z,101112.31
2022-12-17T06:19:12.917Z,101115.03
2022-12-17T06:20:34.764Z,101097.94
2022-12-17T06:21:55.911Z,101109.63
2022-12-17T06:23:19.952Z,101121.28
2022-12-17T06:24:45.751Z,101115.88
2022-12-17T06:26:07.205Z,101121.28
2022-12-17T06:27:32.240Z,101121.97
2022-12-17T06:28:52.838Z,101128.38
2022-12-17T06:30:18.467Z,101121.09
2022-12-17T06:31:41.131Z,101136.31
2022-12-17T06:33:12.855Z,101126.34
2022-12-17T06:34:36.678Z,101138.72
2022-12-17T06:36:05.169Z,101137.03
2022-12-17T06:37:25.939Z,101137.88
2022-12-17T06:38:46.553Z,101136.16
2022-12-17T06:40:10.396Z,101132.31
2022-12-17T06:41:31.171Z,101140.44
2022-12-17T06:42:53.094Z,101145.00
2022-12-17T06:44:14.084Z,101142.13
2022-12-17T06:45:35.269Z,101144.00
2022-12-17T06:46:55.881Z,101142.28
2022-12-17T06:48:23.708Z,101151.09
2022-12-17T06:49:44.403Z,101144.69
2022-12-17T06:51:05.429Z,101154.66
2022-12-17T06:52:28.653Z,101158.03
2022-12-17T06:53:49.652Z,101152.63
2022-12-17T06:55:10.438Z,101150.81
2022-12-17T06:56:34.139Z,101166.88
2022-12-17T06:57:55.026Z,101168.56
2022-12-17T06:59:24.300Z,101158.59
2022-12-17T07:00:44.990Z,101160.47
2022-12-17T07:02:05.794Z,101166.72
2022-12-17T07:03:30.266Z,101171.13
2022-12-17T07:04:51.271Z,101169.41
2022-12-17T07:06:12.953Z,101169.56
2022-12-17T07:07:33.870Z,101166.72
2022-12-17T07:08:54.409Z,101165.88
2022-12-17T07:10:14.981Z,101172.13
2022-12-17T07:11:35.816Z,101178.50
2022-12-17T07:12:57.033Z,101176.53
2022-12-17T07:14:17.900Z,101184.63
2022-12-17T07:15:38.451Z,101181.06
2022-12-17T07:16:59.294Z,101191.75
2022-12-17T07:18:22.689Z,101187.19
2022-12-17T07:19:43.661Z,101190.72
2022-12-17T07:21:05.123Z,101201.53
2022-12-17T07:22:26.049Z,101196.00
2022-12-17T07:23:47.178Z,101198.69
2022-12-17T07:25:08.019Z,101197.00
2022-12-17T07:26:28.744Z,101203.09
2022-12-17T07:27:49.525Z,101201.25
2022-12-17T07:29:10.394Z,101201.25
2022-12-17T07:30:31.474Z,101211.06
2022-12-17T07:31:55.358Z,101202.97
2022-12-17T07:33:24.807Z,101210.91
2022-12-17T07:34:46.461Z,101211.75
2022-12-17T07:36:07.472Z,101211.75
2022-12-17T07:37:30.680Z,101210.75
2022-12-17T07:38:52.085Z,101208.91
2022-12-17T07:40:12.936Z,101213.31
2022-12-17T07:41:33.568Z,101211.47
2022-12-17T07:42:57.883Z,101211.47
2022-12-17T07:44:18.744Z,101212.16
2022-12-17T07:45:39.799Z,101213.88
2022-12-17T07:47:03.992Z,101218.13
2022-12-17T07:48:24.792Z,101213.72
2022-12-17T07:49:47.556Z,101215.44
2022-12-17T07:51:09.256Z,101217.13
2022-12-17T07:52:32.240Z,101226.09
2022-12-17T07:53:56.412Z,101224.22
2022-12-17T07:55:18.471Z,101229.63
2022-12-17T07:56:40.109Z,101233.88
2022-12-17T07:58:04.064Z,101238.28
2022-12-17T07:59:25.363Z,101234.75
2022-12-17T08:00:49.381Z,101237.16
2022-12-17T08:02:10.721Z,101237.16
2022-12-17T08:03:35.288Z,101239.84
2022-12-17T08:04:56.366Z,101237.00
2022-12-17T08:06:17.966Z,101247.81
2022-12-17T08:07:38.736Z,101246.81
2022-12-17T08:09:00.054Z,101243.28
2022-12-17T08:10:23.759Z,101244.97
2022-12-17T08:11:44.353Z,101248.53
2022-12-17T08:13:20.368Z,101253.78
2022-12-17T08:14:41.077Z,101254.66
2022-12-17T08:16:01.935Z,101258.03
2022-12-17T08:17:23.087Z,101257.19
2022-12-17T08:18:43.978Z,101262.44
2022-12-17T08:20:04.804Z,101258.91
2022-12-17T08:21:25.853Z,101265.16
2022-12-17T08:22:46.706Z,101269.56
2022-12-17T08:24:07.523Z,101266.69
2022-12-17T08:25:28.635Z,101270.25
2022-12-17T08:26:52.348Z,101272.84
2022-12-17T08:28:49.017Z,101275.53
2022-12-17T08:30:01.957Z,101276.22
2022-12-17T08:31:23.116Z,101275.38
2022-12-17T08:32:44.546Z,101277.06
2022-12-17T08:34:08.284Z,101284.19
2022-12-17T08:35:43.033Z,101276.94
2022-12-17T08:37:04.151Z,101284.03
2022-12-17T08:38:39.490Z,101280.31
2022-12-17T08:40:00.376Z,101284.75
2022-12-17T08:41:21.217Z,101284.59
2022-12-17T08:42:44.802Z,101280.03
2022-12-17T08:44:05.585Z,101291.69
2022-12-17T08:45:40.379Z,101283.44
2022-12-17T08:47:01.148Z,101292.41
2022-12-17T08:48:24.248Z,101294.09
2022-12-17T08:49:44.889Z,101295.66
2022-12-17T08:51:05.795Z,101296.69
2022-12-17T08:52:27.040Z,101299.22
2022-12-17T08:53:50.687Z,101299.22
2022-12-17T08:55:11.626Z,101294.66
2022-12-17T08:56:32.236Z,101299.78
2022-12-17T08:57:59.138Z,101294.38
2022-12-17T08:59:20.848Z,101295.06
2022-12-17T09:00:41.600Z,101305.72
2022-12-17T09:02:02.695Z,101304.72
2022-12-17T09:03:23.740Z,101299.31
2022-12-17T09:04:44.752Z,101304.56
2022-12-17T09:06:09.074Z,101299.00
2022-12-17T09:07:30.305Z,101303.44
2022-12-17T09:08:51.512Z,101308.84
2022-12-17T09:10:12.244Z,101307.84
2022-12-17T09:11:33.352Z,101307.69
2022-12-17T09:12:53.961Z,101309.25
2022-12-17T09:14:15.037Z,101310.78
2022-12-17T09:15:35.664Z,101308.97
2022-12-17T09:17:05.382Z,101309.66
2022-12-17T09:18:26.255Z,101313.06
2022-12-17T09:19:47.391Z,101320.19
2022-12-17T09:21:14.576Z,101320.72
2022-12-17T09:22:37.102Z,101316.16
2022-12-17T09:23:58.267Z,101316.84
2022-12-17T09:25:19.188Z,101322.09
2022-12-17T09:26:40.117Z,101321.97
2022-12-17T09:28:03.943Z,101317.41
2022-12-17T09:29:24.565Z,101311.84
2022-12-17T09:30:45.199Z,101323.38
2022-12-17T09:32:08.409Z,101327.63
2022-12-17T09:33:36.965Z,101317.50
2022-12-17T09:35:15.276Z,101322.78
2022-12-17T09:36:36.524Z,101328.88
2022-12-17T09:37:59.045Z,101323.31
2022-12-17T09:39:22.911Z,101327.72
2022-12-17T09:40:45.682Z,101332.84
2022-12-17T09:42:20.438Z,101327.28
2022-12-17T09:43:47.955Z,101327.97
2022-12-17T09:45:27.007Z,101325.25
2022-12-17T09:47:10.954Z,101327.69
2022-12-17T09:49:04.333Z,101328.34
2022-12-17T09:50:31.025Z,101321.94
2022-12-17T09:51:53.128Z,101336.03
2022-12-17T09:53:16.609Z,101333.16
2022-12-17T09:55:18.052Z,101325.88
2022-12-17T09:56:42.264Z,101324.03
2022-12-17T09:58:05.792Z,101324.72
2022-12-17T09:59:57.042Z,101336.44
2022-12-17T10:01:17.788Z,101340.69
2022-12-17T10:02:39.768Z,101327.81
2022-12-17T10:04:04.620Z,101337.50
2022-12-17T10:05:37.195Z,101338.50
2022-12-17T10:07:00.368Z,101335.66
2022-12-17T10:08:24.667Z,101342.75
2022-12-17T10:09:47.365Z,101347.19
2022-12-17T10:11:11.926Z,101347.19
2022-12-17T10:12:35.662Z,101348.06
2022-12-17T10:13:56.329Z,101351.44
2022-12-17T10:15:17.337Z,101344.31
2022-12-17T10:16:56.872Z,101345.03
2022-12-17T10:18:29.451Z,101351.44
2022-12-17T10:19:58.065Z,101346.91
2022-12-17T10:21:25.678Z,101349.59
2022-12-17T10:22:46.737Z,101353.16
2022-12-17T10:24:07.665Z,101353.16
2022-12-17T10:25:35.541Z,101356.56
2022-12-17T10:27:07.141Z,101357.25
2022-12-17T10:28:38.832Z,101358.78
2022-12-17T10:30:02.915Z,101361.50
2022-12-17T10:31:39.363Z,101355.09
2022-12-17T10:33:02.850Z,101358.63
2022-12-17T10:34:41.778Z,101361.22
2022-12-17T10:36:02.380Z,101362.06
2022-12-17T10:37:41.823Z,101361.06
2022-12-17T10:39:02.524Z,101356.47
2022-12-17T10:40:36.145Z,101362.78
2022-12-17T10:42:00.509Z,101353.78
2022-12-17T10:43:21.394Z,101361.91
2022-12-17T10:44:49.646Z,101369.03
2022-12-17T10:46:16.817Z,101375.28
2022-12-17T10:47:38.629Z,101368.03
2022-12-17T10:48:59.361Z,101374.28
2022-12-17T10:50:32.979Z,101376.00
2022-12-17T10:51:55.714Z,101369.72
2022-12-17T10:53:16.948Z,101375.13
2022-12-17T10:54:53.608Z,101379.53
2022-12-17T10:56:16.104Z,101379.53
2022-12-17T10:57:49.319Z,101373.97
2022-12-17T10:59:12.982Z,101369.41
2022-12-17T11:00:47.335Z,101368.41
2022-12-17T11:02:19.592Z,101377.22
2022-12-17T11:04:00.700Z,101373.69
2022-12-17T11:05:22.694Z,101373.69
2022-12-17T11:06:50.062Z,101378.09
2022-12-17T11:08:10.951Z,101371.50
2022-12-17T11:09:48.592Z,101383.19
2022-12-17T11:11:09.078Z,101380.50
2022-12-17T11:12:31.997Z,101381.31
2022-12-17T11:14:01.067Z,101379.50
2022-12-17T11:15:35.070Z,101377.63
2022-12-17T11:17:05.369Z,101383.75
2022-12-17T11:18:31.176Z,101387.28
2022-12-17T11:20:05.050Z,101373.75
2022-12-17T11:21:50.145Z,101390.88
2022-12-17T11:23:17.226Z,101386.28
2022-12-17T11:24:50.030Z,101393.44
2022-12-17T11:26:29.004Z,101389.72
2022-12-17T11:28:00.157Z,101387.00
2022-12-17T11:29:24.621Z,101389.84
2022-12-17T11:30:47.457Z,101386.13
2022-12-17T11:32:17.337Z,101390.56
2022-12-17T11:33:47.729Z,101391.56
2022-12-17T11:35:22.503Z,101385.84
2022-12-17T11:36:52.269Z,101391.25
2022-12-17T11:38:41.777Z,101388.41
2022-12-17T11:40:18.146Z,101389.22
2022-12-17T11:41:48.954Z,101391.94
2022-12-17T11:43:14.528Z,101383.81
2022-12-17T11:44:45.054Z,101391.63
2022-12-17T11:46:34.933Z,101393.34
2022-12-17T11:48:14.874Z,101385.91
2022-12-17T11:49:55.422Z,101390.16
2022-12-17T11:51:42.345Z,101386.47
2022-12-17T11:53:16.238Z,101390.16
2022-12-17T11:54:47.757Z,101387.28
2022-12-17T11:56:38.035Z,101396.28
2022-12-17T11:58:09.127Z,101397.13
2022-12-17T11:59:42.119Z,101404.09
2022-12-17T12:01:13.274Z,101403.94
2022-12-17T12:03:08.769Z,101398.53
2022-12-17T12:04:41.819Z,101397.53
2022-12-17T12:06:18.582Z,101402.94
2022-12-17T12:07:46.024Z,101400.41
2022-12-17T12:09:34.858Z,101397.69
2022-12-17T12:11:14.882Z,101391.22
2022-12-17T12:12:41.781Z,101398.53
2022-12-17T12:14:05.536Z,101401.06
2022-12-17T12:15:41.125Z,101402.78
2022-12-17T12:17:19.716Z,101402.78
2022-12-17T12:19:03.669Z,101413.31
2022-12-17T12:20:58.855Z,101406.88
2022-12-17T12:22:56.778Z,101412.16
2022-12-17T12:24:39.214Z,101413.84
2022-12-17T12:26:26.708Z,101415.56
2022-12-17T12:28:26.381Z,101412.69
2022-12-17T12:30:34.519Z,101416.41
2022-12-17T12:32:03.191Z,101413.53
2022-12-17T12:33:50.898Z,101416.25
2022-12-17T12:35:16.551Z,101417.13
2022-12-17T12:36:41.104Z,101419.34
2022-12-17T12:38:02.449Z,101419.50
2022-12-17T12:39:28.564Z,101422.91
2022-12-17T12:41:12.077Z,101418.50
2022-12-17T12:42:51.305Z,101421.22
2022-12-17T12:44:30.677Z,101430.19
2022-12-17T12:46:16.806Z,101430.88
2022-12-17T12:47:48.847Z,101428.19
2022-12-17T12:49:36.013Z,101436.31
2022-12-17T12:51:12.278Z,101436.16
2022-12-17T12:52:40.759Z,101429.56
2022-12-17T12:54:01.526Z,101428.56
2022-12-17T12:55:22.473Z,101436.53
2022-12-17T12:56:48.226Z,101437.25
2022-12-17T12:58:22.736Z,101432.50
2022-12-17T12:59:47.470Z,101434.38
2022-12-17T13:01:08.542Z,101432.34
2022-12-17T13:03:52.197Z,101441.19
2022-12-17T13:05:13.198Z,101435.75
2022-12-17T13:06:46.201Z,101442.03
2022-12-17T13:07:48.739Z,101434.75
2022-12-17T13:08:51.221Z,101445.44
2022-12-17T13:09:57.527Z,101439.19
2022-12-17T13:11:11.563Z,101443.56
2022-12-17T13:12:47.459Z,101441.72
2022-12-17T13:13:56.252Z,101445.28
2022-12-17T13:15:07.534Z,101449.88
2022-12-17T13:16:50.542Z,101449.00
2022-12-17T13:18:15.226Z,101450.69
2022-12-17T13:19:38.358Z,101454.13
2022-12-17T13:20:41.393Z,101456.13
2022-12-17T13:21:44.032Z,101456.13
2022-12-17T13:23:08.438Z,101458.84
2022-12-17T13:24:26.770Z,101459.00
2022-12-17T13:25:29.113Z,101463.72
2022-12-17T13:26:44.148Z,101460.16
2022-12-17T13:27:47.247Z,101461.16
2022-12-17T13:28:52.357Z,101472.88
2022-12-17T13:30:11.238Z,101463.03
2022-12-17T13:31:19.739Z,101466.59
2022-12-17T13:32:38.649Z,101461.34
2022-12-17T13:34:02.230Z,101467.75
2022-12-17T13:35:39.917Z,101468.78
2022-12-17T13:36:51.958Z,101471.63
2022-12-17T13:38:27.135Z,101473.50
2022-12-17T13:39:45.150Z,101480.09
2022-12-17T13:40:59.587Z,101477.38
2022-12-17T13:42:02.556Z,101482.97
2022-12-17T13:43:04.876Z,101483.81
2022-12-17T13:44:25.523Z,101480.41
2022-12-17T13:45:36.579Z,101481.41
2022-12-17T13:46:47.352Z,101476.81
2022-12-17T13:47:58.127Z,101482.25
2022-12-17T13:49:03.554Z,101491.38
2022-12-17T13:50:35.897Z,101491.25
2022-12-17T13:51:38.805Z,101489.53
2022-12-17T13:52:41.051Z,101494.09
2022-12-17T13:53:53.051Z,101493.81
2022-12-17T13:55:09.524Z,101496.53
2022-12-17T13:56:13.106Z,101495.81
2022-12-17T13:57:24.793Z,101494.81
2022-12-17T13:58:30.337Z,101498.53
2022-12-17T13:59:32.701Z,101506.50
2022-12-17T14:00:35.070Z,101504.81
2022-12-17T14:01:49.193Z,101501.41
2022-12-17T14:02:52.960Z,101505.97
2022-12-17T14:04:07.228Z,101506.81
2022-12-17T14:05:25.023Z,101513.25
2022-12-17T14:06:33.161Z,101509.69
2022-12-17T14:07:39.285Z,101516.13
2022-12-17T14:08:42.500Z,101521.53
2022-12-17T14:09:44.955Z,101520.69
2022-12-17T14:11:13.610Z,101520.69
2022-12-17T14:12:23.790Z,101520.81
2022-12-17T14:13:26.062Z,101523.53
2022-12-17T14:14:39.379Z,101526.41
2022-12-17T14:15:51.431Z,101524.69
2022-12-17T14:16:55.212Z,101532.16
2022-12-17T14:17:59.342Z,101525.00
2022-12-17T14:19:01.726Z,101525.84
2022-12-17T14:20:13.115Z,101530.44
2022-12-17T14:21:15.650Z,101535.69
2022-12-17T14:22:31.734Z,101536.69
2022-12-17T14:23:34.286Z,101535.03
2022-12-17T14:24:36.640Z,101539.56
2022-12-17T14:25:41.104Z,101538.72
2022-12-17T14:27:00.091Z,101535.19
2022-12-17T14:28:08.623Z,101538.03
2022-12-17T14:29:14.513Z,101529.75
2022-12-17T14:30:36.121Z,101540.72
2022-12-17T14:31:38.446Z,101537.19
2022-12-17T14:32:43.972Z,101539.03
2022-12-17T14:33:47.040Z,101551.72
2022-12-17T14:34:49.281Z,101553.59
2022-12-17T14:35:52.991Z,101553.75
2022-12-17T14:37:00.848Z,101555.59
2022-12-17T14:38:04.990Z,101553.03
2022-12-17T14:39:31.162Z,101552.31
2022-12-17T14:40:33.463Z,101556.91
2022-12-17T14:41:56.838Z,101558.78
2022-12-17T14:43:03.186Z,101557.06
2022-12-17T14:44:06.277Z,101557.06
2022-12-17T14:45:28.184Z,101552.81
2022-12-17T14:46:34.944Z,101568.19
2022-12-17T14:47:37.918Z,101568.50
2022-12-17T14:49:02.029Z,101565.97
2022-12-17T14:50:34.800Z,101567.09
2022-12-17T14:51:40.539Z,101571.13
2022-12-17T14:52:45.662Z,101566.72
2022-12-17T14:53:51.016Z,101574.00
2022-12-17T14:54:53.253Z,101569.56
2022-12-17T14:55:59.987Z,101572.44
2022-12-17T14:57:05.728Z,101572.56
2022-12-17T14:58:14.939Z,101570.88
2022-12-17T14:59:38.972Z,101571.88
2022-12-17T15:00:46.381Z,101577.44
2022-12-17T15:01:54.179Z,101574.88
2022-12-17T15:02:58.348Z,101576.72
2022-12-17T15:04:03.057Z,101586.72
2022-12-17T15:05:05.777Z,101580.59
2022-12-17T15:06:13.276Z,101577.03
2022-12-17T15:07:21.979Z,101585.28
2022-12-17T15:08:25.088Z,101582.75
2022-12-17T15:09:29.351Z,101585.44
2022-12-17T15:10:31.801Z,101593.72
2022-12-17T15:11:34.015Z,101590.19
2022-12-17T15:12:36.246Z,101593.03
2022-12-17T15:13:38.584Z,101599.31
2022-12-17T15:14:40.810Z,101591.50
2022-12-17T15:15:43.127Z,101592.31
2022-12-17T15:16:46.360Z,101591.50
2022-12-17T15:17:48.918Z,101597.75
2022-12-17T15:18:51.280Z,101594.19
2022-12-17T15:19:56.113Z,101591.50
2022-12-17T15:21:02.983Z,101595.19
2022-12-17T15:22:07.787Z,101599.72
2022-12-17T15:23:16.762Z,101594.31
2022-12-17T15:24:21.113Z,101597.91
2022-12-17T15:25:23.351Z,101605.16
2022-12-17T15:26:29.610Z,101599.72
2022-12-17T15:27:32.006Z,101607.16
2022-12-17T15:28:34.522Z,101604.47
2022-12-17T15:29:37.339Z,101602.75
2022-12-17T15:30:40.308Z,101599.19
2022-12-17T15:31:42.704Z,101602.03
2022-12-17T15:32:45.927Z,101603.91
2022-12-17T15:33:48.169Z,101605.63
2022-12-17T15:34:53.337Z,101611.03
2022-12-17T15:35:55.602Z,101598.63
2022-12-17T15:36:57.811Z,101610.47
2022-12-17T15:38:00.116Z,101605.03
2022-12-17T15:39:02.410Z,101608.59
2022-12-17T15:40:13.890Z,101605.88
2022-12-17T15:41:34.743Z,101610.63
2022-12-17T15:42:55.614Z,101594.63